Time;durP1;ratioP1;P1;durP2;ratioP2;P2;SDS_P1;SDS_P2;PMS_P1;PMS_P2;Temp;Humidity;BMP_temperature;BMP_pressure;BME280_temperature;BME280_humidity;BME280_pressure;Samples;Min_cycle;Max_cycle;Signal;HPM_P1;HPM_P2
2024/04/23 00:00:42;;;;;;;14.53;9.60;;;-0.30;99.90;;;;;;6526045;22;20012;-81
2024/04/23 00:03:30;;;;;;;12.82;8.82;;;-0.40;99.90;;;;;;6512296;22;20016;-82
2024/04/23 00:06:20;;;;;;;12.82;8.57;;;-0.40;99.90;;;;;;6524118;22;20038;-83
2024/04/23 00:09:18;;;;;;;13.80;9.77;;;-0.50;99.90;;;;;;6516368;21;20303;-82
2024/04/23 00:12:26;;;;;;;13.80;8.32;;;-0.50;99.90;;;;;;6511657;22;20071;-82
2024/04/23 00:15:13;;;;;;;15.23;8.90;;;-0.60;99.90;;;;;;6530719;21;20435;-81
2024/04/23 00:18:04;;;;;;;19.00;9.52;;;-0.70;99.90;;;;;;6513237;21;20001;-83
2024/04/23 00:20:55;;;;;;;14.10;9.05;;;-0.70;99.90;;;;;;6514928;22;20381;-84
2024/04/23 00:23:44;;;;;;;15.02;8.98;;;-0.80;99.90;;;;;;6519397;21;20029;-84
2024/04/23 00:26:35;;;;;;;16.73;9.82;;;-0.80;99.90;;;;;;6514911;22;20087;-81
2024/04/23 00:29:32;;;;;;;16.35;9.85;;;-0.80;99.90;;;;;;6514854;21;20001;-83
2024/04/23 00:32:19;;;;;;;15.63;9.65;;;-0.90;1.00;;;;;;6513673;22;20017;-84
2024/04/23 00:35:08;;;;;;;14.60;9.52;;;-0.80;1.00;;;;;;6534849;21;19997;-81
2024/04/23 00:38:00;;;;;;;17.35;10.40;;;-0.80;1.00;;;;;;6530106;21;20013;-81
2024/04/23 00:40:53;;;;;;;18.10;10.35;;;-0.80;1.00;;;;;;6513997;22;20001;-80
2024/04/23 00:43:50;;;;;;;17.73;9.80;;;-0.80;43.90;;;;;;6516860;21;20075;-80
2024/04/23 00:46:39;;;;;;;12.63;8.60;;;-0.70;99.90;;;;;;6512329;22;20007;-81
2024/04/23 00:49:26;;;;;;;17.50;10.77;;;-0.70;99.90;;;;;;6515088;21;20280;-82
2024/04/23 00:52:24;;;;;;;21.17;12.15;;;-0.70;99.90;;;;;;6515322;21;20044;-81
2024/04/23 00:55:16;;;;;;;20.67;9.90;;;-0.80;99.90;;;;;;6516079;21;20001;-81
2024/04/23 00:58:16;;;;;;;17.08;11.00;;;-0.80;99.90;;;;;;6516488;21;20001;-81
2024/04/23 01:01:08;;;;;;;15.68;10.60;;;-0.80;99.90;;;;;;6516926;21;20001;-81
2024/04/23 01:04:03;;;;;;;18.98;10.45;;;-0.90;99.90;;;;;;6514961;21;20011;-82
2024/04/23 01:06:59;;;;;;;15.98;10.82;;;-0.90;99.90;;;;;;6511374;22;20535;-81
2024/04/23 01:10:01;;;;;;;16.67;11.00;;;-0.90;99.90;;;;;;6514979;21;20412;-83
2024/04/23 01:12:48;;;;;;;22.58;11.43;;;-0.90;99.90;;;;;;6525924;22;20017;-81
2024/04/23 01:15:43;;;;;;;14.05;8.95;;;-0.90;99.90;;;;;;6513191;21;20013;-80
2024/04/23 01:18:44;;;;;;;19.92;11.52;;;-0.90;99.90;;;;;;6517453;21;20005;-81
2024/04/23 01:26:08;;;;;;;;;;;;;;;;;;;;;
2024/04/23 01:29:09;;;;;;;17.98;11.52;;;-1.10;1.00;;;;;;6513329;21;20492;-82
2024/04/23 01:32:06;;;;;;;17.92;11.23;;;-1.10;1.00;;;;;;6509895;22;20053;-81
2024/04/23 01:34:55;;;;;;;19.35;11.70;;;-1.10;1.00;;;;;;6511105;22;20012;-81
2024/04/23 01:37:50;;;;;;;17.98;11.88;;;-1.20;1.00;;;;;;6512038;22;20005;-83
2024/04/23 01:40:41;;;;;;;21.08;12.18;;;-1.10;55.90;;;;;;6516882;22;20056;-82
2024/04/23 01:43:32;;;;;;;16.45;10.68;;;-1.10;1.00;;;;;;6541535;21;20001;-83
2024/04/23 01:46:21;;;;;;;20.13;12.35;;;-1.20;17.50;;;;;;6534034;21;19997;-82
2024/04/23 01:49:16;;;;;;;22.38;12.15;;;-1.10;99.90;;;;;;6510921;21;20060;-83
2024/04/23 01:52:11;;;;;;;18.80;12.02;;;-1.20;99.90;;;;;;6519361;21;20012;-81
2024/04/23 01:55:02;;;;;;;22.85;13.63;;;-1.10;99.90;;;;;;6530335;21;20016;-83
2024/04/23 01:57:56;;;;;;;23.67;13.10;;;-1.10;99.90;;;;;;6512310;22;20257;-81
2024/04/23 02:00:53;;;;;;;21.35;13.00;;;-1.00;1.00;;;;;;6518459;22;20471;-81
2024/04/23 02:03:46;;;;;;;23.13;14.05;;;-0.90;1.00;;;;;;6525221;22;20052;-82
2024/04/23 02:06:40;;;;;;;25.05;13.40;;;-0.90;1.00;;;;;;6527866;21;20017;-82
2024/04/23 02:09:36;;;;;;;22.45;13.27;;;-0.80;1.00;;;;;;6524228;21;19997;-80
2024/04/23 02:12:28;;;;;;;22.35;13.23;;;-0.80;2.00;;;;;;6526245;21;20013;-82
2024/04/23 02:15:30;;;;;;;28.63;15.13;;;-0.80;63.60;;;;;;6548267;21;19998;-81
2024/04/23 02:18:22;;;;;;;25.73;15.07;;;-0.70;99.90;;;;;;6533944;21;20001;-82
2024/04/23 02:21:19;;;;;;;26.10;14.43;;;-0.70;99.90;;;;;;6508869;22;20394;-82
2024/04/23 02:24:28;;;;;;;23.38;13.93;;;-0.70;99.90;;;;;;6507487;22;20016;-83
2024/04/23 02:27:27;;;;;;;26.13;14.65;;;-0.70;99.90;;;;;;6525239;22;20001;-82
2024/04/23 02:30:18;;;;;;;25.08;15.07;;;-0.70;99.90;;;;;;6527141;21;20005;-81
2024/04/23 02:33:14;;;;;;;26.75;15.32;;;-0.70;99.90;;;;;;6527015;21;19993;-82
2024/04/23 02:36:05;;;;;;;25.50;15.88;;;-0.70;99.90;;;;;;6533207;21;19997;-82
2024/04/23 02:38:53;;;;;;;30.60;15.55;;;-0.80;99.90;;;;;;6551652;21;19993;-81
2024/04/23 02:41:52;;;;;;;26.88;16.13;;;-0.80;99.90;;;;;;6526779;21;20015;-83
2024/04/23 02:44:48;;;;;;;27.10;16.10;;;-0.80;99.90;;;;;;6513912;22;20031;-81
2024/04/23 02:47:45;;;;;;;32.90;15.93;;;-0.90;99.90;;;;;;6512127;22;20005;-81
2024/04/23 02:50:44;;;;;;;26.40;15.05;;;-1.00;99.90;;;;;;6514764;21;20005;-81
2024/04/23 02:53:36;;;;;;;28.00;15.70;;;-1.10;99.90;;;;;;6516339;22;20075;-81
2024/04/23 02:56:36;;;;;;;28.50;15.43;;;-1.20;99.90;;;;;;6513301;21;20005;-82
2024/04/23 02:59:26;;;;;;;31.05;16.65;;;-1.20;99.90;;;;;;6512528;21;20422;-81
2024/04/23 03:02:23;;;;;;;27.50;15.77;;;-1.20;99.90;;;;;;6512454;21;20000;-83
2024/04/23 03:05:16;;;;;;;26.27;15.32;;;-1.30;1.00;;;;;;6514518;22;20017;-83
2024/04/23 03:08:08;;;;;;;25.70;15.10;;;-1.40;99.90;;;;;;6516318;21;20005;-83
2024/04/23 03:10:56;;;;;;;27.45;16.10;;;-1.40;1.00;;;;;;6514856;21;20016;-81
2024/04/23 03:13:48;;;;;;;27.10;16.20;;;-1.50;1.00;;;;;;6513736;22;20608;-83
2024/04/23 03:16:44;;;;;;;30.88;16.48;;;-1.50;1.00;;;;;;6513351;21;20001;-83
2024/04/23 03:19:33;;;;;;;28.88;16.58;;;-1.60;16.70;;;;;;6513207;21;20005;-83
2024/04/23 03:22:21;;;;;;;30.65;16.35;;;-1.60;99.90;;;;;;6540505;21;20003;-80
2024/04/23 03:25:32;;;;;;;27.48;15.95;;;-1.60;99.90;;;;;;6533999;21;20056;-82
2024/04/23 03:28:31;;;;;;;27.67;16.27;;;-1.70;99.90;;;;;;6526961;21;20005;-83
2024/04/23 03:31:19;;;;;;;32.53;18.35;;;-1.70;99.90;;;;;;6511905;22;20001;-81
2024/04/23 03:34:18;;;;;;;30.73;16.73;;;-1.60;1.00;;;;;;6517004;22;20501;-80
2024/04/23 03:37:10;;;;;;;31.25;18.00;;;-1.70;1.00;;;;;;6507277;22;20698;-83
2024/04/23 03:39:58;;;;;;;31.30;17.80;;;-1.70;8.50;;;;;;6510681;21;20015;-84
2024/04/23 03:42:46;;;;;;;31.65;16.38;;;-1.70;95.80;;;;;;6519712;22;20749;-82
2024/04/23 03:45:34;;;;;;;32.03;18.02;;;-1.70;99.90;;;;;;6532990;21;20030;-82
2024/04/23 03:48:24;;;;;;;32.90;18.55;;;-1.70;99.90;;;;;;6523040;21;20384;-81
2024/04/23 03:51:14;;;;;;;31.33;17.10;;;-1.70;1.00;;;;;;6550108;21;20009;-81
2024/04/23 03:54:02;;;;;;;33.25;18.23;;;-1.70;1.00;;;;;;6549542;21;20008;-82
2024/04/23 03:56:50;;;;;;;31.35;17.38;;;-1.70;1.00;;;;;;6519479;22;20005;-82
2024/04/23 03:59:37;;;;;;;30.17;18.45;;;-1.80;1.00;;;;;;6517100;21;20091;-82
2024/04/23 04:08:45;;;;;;;35.58;19.27;;;-1.80;99.90;;;;;;6512253;21;20049;-80
2024/04/23 04:11:34;;;;;;;38.75;19.30;;;-1.80;99.90;;;;;;6514366;21;20005;-81
2024/04/23 04:14:23;;;;;;;35.60;19.23;;;-1.80;1.00;;;;;;6513745;21;20005;-80
2024/04/23 04:17:15;;;;;;;37.75;20.63;;;-1.80;1.00;;;;;;6514766;21;20009;-83
2024/04/23 04:20:06;;;;;;;34.88;19.45;;;-1.80;1.00;;;;;;6514695;21;20012;-83
2024/04/23 04:22:53;;;;;;;41.90;21.55;;;-1.70;99.90;;;;;;6516181;21;20005;-82
2024/04/23 04:25:41;;;;;;;36.90;20.58;;;-1.70;99.90;;;;;;6516894;21;20373;-82
2024/04/23 04:28:30;;;;;;;38.80;20.98;;;-1.70;99.90;;;;;;6513925;21;20004;-82
2024/04/23 04:31:19;;;;;;;41.10;21.70;;;-1.80;99.90;;;;;;6515536;21;20028;-82
2024/04/23 04:34:06;;;;;;;37.22;20.88;;;-1.80;99.90;;;;;;6516120;21;20053;-83
2024/04/23 04:36:58;;;;;;;40.15;20.92;;;-1.80;99.90;;;;;;6529741;22;20011;-83
2024/04/23 04:39:53;;;;;;;37.13;20.30;;;-1.80;99.90;;;;;;6508490;21;20009;-81
2024/04/23 04:42:50;;;;;;;43.28;21.30;;;-1.90;99.90;;;;;;6513912;22;20008;-81
2024/04/23 04:45:48;;;;;;;40.50;22.20;;;-1.80;99.90;;;;;;6530732;21;20001;-82
2024/04/23 04:48:58;;;;;;;46.90;21.85;;;-1.80;1.00;;;;;;6527433;21;20064;-82
2024/04/23 04:52:16;;;;;;;44.17;22.95;;;-1.70;1.00;;;;;;6527659;21;20020;-82
2024/04/23 04:55:26;;;;;;;42.72;22.30;;;-1.60;15.40;;;;;;6516443;21;20004;-82
2024/04/23 04:58:39;;;;;;;42.83;21.30;;;-1.60;12.60;;;;;;6514442;21;20004;-84
2024/04/23 05:01:32;;;;;;;43.17;21.60;;;-1.50;99.90;;;;;;6515669;21;20016;-82
2024/04/23 05:04:28;;;;;;;43.78;22.75;;;-1.50;99.90;;;;;;6514937;22;20019;-82
2024/04/23 05:07:31;;;;;;;42.70;22.33;;;-1.30;99.90;;;;;;6515260;21;20008;-83
2024/04/23 05:10:32;;;;;;;38.63;22.80;;;-1.10;99.90;;;;;;6510924;22;20509;-81
2024/04/23 05:13:31;;;;;;;37.78;20.40;;;-1.00;99.90;;;;;;6512879;21;20214;-84
2024/04/23 05:16:39;;;;;;;;;;;;;;;;;;;;;
2024/04/23 05:20:01;;;;;;;35.35;19.80;;;-0.40;1.00;;;;;;6510928;21;20001;-84
2024/04/23 05:23:13;;;;;;;33.42;19.70;;;0.00;1.00;;;;;;6506778;22;19997;-83
2024/04/23 05:26:46;;;;;;;34.88;19.00;;;0.30;1.00;;;;;;6508161;22;20019;-83
2024/04/23 05:29:45;;;;;;;27.65;16.77;;;0.30;1.00;;;;;;6507988;21;20076;-83
2024/04/23 05:32:50;;;;;;;27.85;17.83;;;0.40;99.90;;;;;;6510733;22;20001;-83
2024/04/23 05:35:49;;;;;;;25.58;16.83;;;0.40;23.60;;;;;;6512504;22;20012;-84
2024/04/23 05:38:44;;;;;;;27.80;16.80;;;0.50;99.90;;;;;;6522628;21;19997;-84
2024/04/23 05:59:17;;;;;;;;;;;;;;;;;;;;;
2024/04/23 06:53:05;;;;;;;;;;;;;;;;;;;;;
2024/04/23 06:56:45;;;;;;;10.23;7.07;;;6.30;1.00;;;;;;6517130;21;20082;-80
2024/04/23 07:30:26;;;;;;;7.18;5.55;;;8.40;96.40;;;;;;6300951;22;20096;-84
2024/04/23 07:42:40;;;;;;;;;;;;;;;;;;;;;
2024/04/23 07:51:35;;;;;;;;;;;;;;;;;;;;;
2024/04/23 07:55:35;;;;;;;8.93;6.57;;;8.90;8.20;;;;;;6294248;22;20418;-84
2024/04/23 08:58:24;;;;;;;9.27;6.38;;;11.50;1.00;;;;;;6520624;22;20020;-82
2024/04/23 09:11:01;;;;;;;;;;;;;;;;;;;;;
2024/04/23 09:32:16;;;;;;;;;;;;;;;;;;;;;
2024/04/23 10:26:36;;;;;;;;;;;;;;;;;;;;;
2024/04/23 10:30:50;;;;;;;;;;;;;;;;;;;;;
2024/04/23 10:55:15;;;;;;;;;;;;;;;;;;;;;
2024/04/23 10:59:16;;;;;;;;;;;;;;;;;;;;;
2024/04/23 11:41:40;;;;;;;7.88;5.53;;;12.90;1.00;;;;;;6171701;22;20377;-81
2024/04/23 12:02:51;;;;;;;5.05;4.50;;;10.40;1.00;;;;;;6254215;22;20077;-82
2024/04/23 12:06:56;;;;;;;;;;;;;;;;;;;;;
2024/04/23 12:23:53;;;;;;;;;;;;;;;;;;;;;
2024/04/23 14:05:44;;;;;;;6.35;4.78;;;9.90;1.00;;;;;;6613594;21;20035;-83
2024/04/23 14:58:03;;;;;;;6.32;5.00;;;8.60;1.00;;;;;;6528356;21;20309;-81
2024/04/23 15:05:27;;;;;;;6.22;4.63;;;8.60;1.00;;;;;;6495430;22;19997;-81
2024/04/23 15:24:46;;;;;;;7.88;5.50;;;8.20;1.00;;;;;;5479013;21;23574013;-81
2024/04/23 15:37:50;;;;;;;6.22;4.63;;;8.10;1.00;;;;;;6295828;22;20382;-81
2024/04/23 15:41:13;;;;;;;5.32;4.60;;;8.10;1.00;;;;;;6393662;22;20009;-80
2024/04/23 15:44:53;;;;;;;8.95;4.13;;;8.10;1.00;;;;;;6386420;22;20020;-82
2024/04/23 15:48:25;;;;;;;5.75;3.92;;;8.00;1.00;;;;;;6415901;22;20002;-82
2024/04/23 15:52:07;;;;;;;;;;;;;;;;;;;;;
2024/04/23 15:55:40;;;;;;;6.13;3.83;;;8.00;1.00;;;;;;6381638;22;20309;-82
2024/04/23 15:58:46;;;;;;;9.68;4.65;;;7.90;1.00;;;;;;6416212;22;20002;-79
2024/04/23 16:01:56;;;;;;;6.63;4.00;;;7.80;1.00;;;;;;6419180;22;20002;-82
2024/04/23 16:05:36;;;;;;;6.35;4.05;;;7.80;1.00;;;;;;6412077;22;20671;-82
2024/04/23 16:09:16;;;;;;;5.72;4.05;;;7.80;1.00;;;;;;6411337;22;20013;-80
2024/04/23 16:12:36;;;;;;;7.63;3.90;;;7.70;1.00;;;;;;6384217;22;20006;-81
2024/04/23 16:15:51;;;;;;;5.60;3.80;;;7.70;1.00;;;;;;6398095;22;20556;-82
2024/04/23 16:19:14;;;;;;;;;;;;;;;;;;;;;
2024/04/23 16:22:29;;;;;;;7.85;4.90;;;7.70;1.00;;;;;;6407308;22;20010;-80
2024/04/23 16:36:08;;;;;;;4.47;3.83;;;7.50;1.00;;;;;;6458257;22;20037;-81
2024/04/23 16:40:06;;;;;;;;;;;;;;;;;;;;;
2024/04/23 16:43:40;;;;;;;5.75;4.18;;;7.40;1.00;;;;;;6464463;22;20013;-81
2024/04/23 16:47:15;;;;;;;4.38;3.60;;;7.40;1.00;;;;;;6358980;22;20533;-81
2024/04/23 16:50:35;;;;;;;7.22;3.53;;;7.40;1.00;;;;;;6329940;22;20047;-83
2024/04/23 16:54:07;;;;;;;;;;;;;;;;;;;;;
2024/04/23 16:57:26;;;;;;;4.60;3.60;;;7.20;1.00;;;;;;6371506;22;20376;-81
2024/04/23 17:04:23;;;;;;;;;;;7.20;1.00;;;;;;6368626;22;20043;-83
2024/04/23 17:08:04;;;;;;;5.03;3.38;;;7.20;1.00;;;;;;6451800;22;19950;-83
2024/04/23 17:11:40;;;;;;;4.63;3.45;;;7.10;1.00;;;;;;6416734;22;20014;-83
2024/04/23 17:15:09;;;;;;;5.22;3.38;;;7.10;1.00;;;;;;6427991;22;20001;-81
2024/04/23 17:18:42;;;;;;;6.32;3.45;;;7.00;1.00;;;;;;6477447;22;20016;-82
2024/04/23 17:22:41;;;;;;;7.60;3.70;;;7.00;1.00;;;;;;6413007;22;20000;-83
2024/04/23 17:25:47;;;;;;;4.80;3.20;;;6.90;1.00;;;;;;6451179;22;20002;-82
2024/04/23 17:29:17;;;;;;;7.32;3.85;;;7.00;1.00;;;;;;6472823;22;19998;-81
2024/04/23 17:33:11;;;;;;;;;;;;;;;;;;;;;
2024/04/23 17:36:46;;;;;;;4.40;3.17;;;6.90;1.00;;;;;;6479703;22;20006;-83
2024/04/23 17:41:00;;;;;;;4.07;3.50;;;6.90;1.00;;;;;;6468717;22;20006;-82
2024/04/23 17:44:53;;;;;;;;;;;;;;;;;;;;;
2024/04/23 17:48:34;;;;;;;4.38;3.55;;;6.70;1.00;;;;;;6390263;22;20022;-82
2024/04/23 17:52:35;;;;;;;3.78;3.03;;;6.70;1.00;;;;;;6469936;22;20056;-82
2024/04/23 17:57:08;;;;;;;;;;;;;;;;;;;;;
2024/04/23 18:03:59;;;;;;;4.65;2.97;;;6.50;1.00;;;;;;6429278;22;20016;-84
2024/04/23 18:07:14;;;;;;;4.85;3.45;;;6.40;1.00;;;;;;6463675;22;20006;-83
2024/04/23 18:10:21;;;;;;;5.15;3.40;;;6.40;1.00;;;;;;6424780;22;20030;-83
2024/04/23 18:13:11;;;;;;;3.97;3.40;;;6.40;1.00;;;;;;6465263;22;20387;-84
2024/04/23 18:16:25;;;;;;;4.10;3.10;;;6.30;1.00;;;;;;6429721;22;20013;-83
2024/04/23 18:19:55;;;;;;;;;;;;;;;;;;;;;
2024/04/23 18:23:14;;;;;;;4.50;3.22;;;6.20;1.00;;;;;;6442324;22;20315;-84
2024/04/23 18:26:27;;;;;;;6.43;3.42;;;6.10;1.00;;;;;;6374784;22;20004;-84
2024/04/23 18:34:20;;;;;;;4.45;3.38;;;6.10;1.00;;;;;;6361449;22;20401;-81
2024/04/23 18:41:27;;;;;;;3.72;3.03;;;6.00;1.00;;;;;;6396565;22;20002;-83
2024/04/23 18:44:30;;;;;;;9.15;4.07;;;6.00;1.00;;;;;;6413727;22;20010;-83
2024/04/23 18:47:39;;;;;;;4.93;3.75;;;6.00;1.00;;;;;;6413724;22;19998;-82
2024/04/23 18:51:26;;;;;;;5.63;3.67;;;6.00;1.00;;;;;;6414212;22;20320;-84
2024/04/23 18:55:38;;;;;;;4.18;3.40;;;6.00;1.00;;;;;;6389457;22;20297;-81
2024/04/23 18:59:16;;;;;;;7.13;3.80;;;6.00;1.00;;;;;;6222588;22;20515;-81
2024/04/23 19:11:32;;;;;;;7.22;4.40;;;5.80;1.00;;;;;;6312522;22;20011;-84
2024/04/23 19:18:47;;;;;;;7.95;5.20;;;5.60;1.00;;;;;;6281509;22;20012;-85
2024/04/23 19:25:33;;;;;;;9.27;4.82;;;5.60;1.00;;;;;;6295015;22;20000;-81
2024/04/23 19:28:45;;;;;;;6.75;3.92;;;5.50;1.00;;;;;;6357162;22;19998;-82
2024/04/23 19:31:43;;;;;;;7.32;4.53;;;5.50;1.00;;;;;;6409808;22;20456;-80
2024/04/23 19:34:48;;;;;;;8.52;4.35;;;5.40;1.00;;;;;;6414007;22;20003;-84
2024/04/23 19:45:27;;;;;;;8.95;4.45;;;5.50;1.00;;;;;;6464334;22;20006;-84
2024/04/23 19:49:20;;;;;;;5.75;3.92;;;5.40;1.00;;;;;;6452797;22;20009;-86
2024/04/23 19:53:27;;;;;;;5.18;4.38;;;5.40;1.00;;;;;;6461444;22;20033;-82
2024/04/23 20:01:11;;;;;;;6.43;4.75;;;5.00;1.00;;;;;;6449779;22;20026;-82
2024/04/23 20:04:35;;;;;;;8.57;4.80;;;5.00;1.00;;;;;;6405143;22;20009;-82
2024/04/23 20:08:29;;;;;;;;;;;;;;;;;;;;;
2024/04/23 20:11:41;;;;;;;;;;;;;;;;;;;;;
2024/04/23 20:15:44;;;;;;;9.40;5.00;;;4.60;1.00;;;;;;6268320;22;20107;-82
2024/04/23 20:20:07;;;;;;;8.07;5.45;;;4.50;1.00;;;;;;6241409;22;20778;-81
2024/04/23 20:23:28;;;;;;;5.65;4.57;;;4.40;1.00;;;;;;6264435;22;20008;-83
2024/04/23 20:27:09;;;;;;;25.20;4.80;;;4.30;1.00;;;;;;6230108;22;20476;-83
2024/04/23 20:33:54;;;;;;;8.93;5.78;;;4.00;1.00;;;;;;6261493;22;19924;-85
2024/04/23 20:37:23;;;;;;;7.47;4.90;;;3.90;1.00;;;;;;6256463;22;20443;-83
2024/04/23 20:40:39;;;;;;;7.63;5.30;;;3.80;1.00;;;;;;6220951;22;20004;-83
2024/04/23 20:44:38;;;;;;;9.20;4.95;;;3.70;1.00;;;;;;6276892;22;20056;-82
2024/04/23 20:48:22;;;;;;;8.05;4.65;;;3.70;1.00;;;;;;6434658;22;20005;-83
2024/04/23 20:51:31;;;;;;;8.27;4.97;;;3.60;1.00;;;;;;6415994;22;20016;-83
2024/04/23 20:54:51;;;;;;;6.88;4.28;;;3.50;1.00;;;;;;6221413;22;20004;-83
2024/04/23 20:58:20;;;;;;;9.18;5.15;;;3.40;1.00;;;;;;6241669;22;20004;-82
2024/04/23 21:01:16;;;;;;;9.00;4.97;;;3.40;1.00;;;;;;6268187;22;20020;-83
2024/04/23 21:04:32;;;;;;;8.77;5.25;;;3.30;1.00;;;;;;6254014;22;20008;-82
2024/04/23 21:08:08;;;;;;;;;;;;;;;;;;;;;
2024/04/23 21:11:24;;;;;;;6.13;4.70;;;3.20;1.00;;;;;;6254034;22;20037;-83
2024/04/23 21:15:00;;;;;;;6.40;5.20;;;3.20;1.00;;;;;;6216260;22;20009;-84
2024/04/23 21:17:58;;;;;;;;;;;3.10;1.00;;;;;;6266774;22;20007;-83
2024/04/23 21:20:55;;;;;;;8.73;4.68;;;3.00;1.00;;;;;;6225508;22;19935;-82
2024/04/23 21:24:07;;;;;;;6.60;4.72;;;2.90;1.00;;;;;;6330988;22;20013;-81
2024/04/23 21:27:11;;;;;;;8.05;5.07;;;2.90;1.00;;;;;;6427845;22;20041;-85
2024/04/23 21:30:11;;;;;;;7.10;4.80;;;2.80;1.00;;;;;;6477985;22;20010;-82
2024/04/23 21:33:17;;;;;;;9.65;4.47;;;2.80;1.00;;;;;;6441736;22;20013;-84
2024/04/23 21:36:43;;;;;;;8.65;5.07;;;2.80;1.00;;;;;;6431191;22;20005;-84
2024/04/23 21:39:57;;;;;;;8.52;4.60;;;2.70;1.00;;;;;;6472836;22;20006;-84
2024/04/23 21:42:57;;;;;;;6.70;4.95;;;2.70;1.00;;;;;;6463090;22;20017;-84
2024/04/23 21:46:29;;;;;;;9.10;5.30;;;2.60;1.00;;;;;;6462098;22;20012;-82
2024/04/23 21:50:09;;;;;;;5.50;4.75;;;2.50;1.00;;;;;;6458563;22;20004;-83
2024/04/23 21:56:27;;;;;;;12.45;6.68;;;2.40;1.00;;;;;;6290131;22;20002;-83
2024/04/23 22:00:09;;;;;;;11.55;6.40;;;2.30;1.00;;;;;;6462295;22;20005;-83
2024/04/23 22:03:52;;;;;;;;;;;;;;;;;;;;;
2024/04/23 22:06:44;;;;;;;11.05;5.38;;;2.10;1.00;;;;;;6458447;22;20001;-81
2024/04/23 22:09:50;;;;;;;14.48;5.28;;;2.00;1.00;;;;;;6423379;22;20608;-84
2024/04/23 22:13:02;;;;;;;7.00;5.28;;;1.90;2.70;;;;;;6457996;22;20009;-82
2024/04/23 22:16:08;;;;;;;10.93;6.13;;;1.80;8.80;;;;;;6473258;22;20032;-81
2024/04/23 22:19:04;;;;;;;10.45;5.60;;;1.80;15.60;;;;;;6451629;22;20013;-81
2024/04/23 22:22:24;;;;;;;7.63;5.53;;;1.70;22.60;;;;;;6305548;22;20001;-80
2024/04/23 22:25:49;;;;;;;7.10;6.07;;;1.60;31.00;;;;;;6434696;22;20006;-81
2024/04/23 22:28:45;;;;;;;11.68;5.47;;;1.60;35.10;;;;;;6454259;22;20009;-83
2024/04/23 22:31:35;;;;;;;9.73;5.80;;;1.60;36.90;;;;;;6463019;22;20002;-82
2024/04/23 22:34:55;;;;;;;8.30;5.25;;;1.60;37.20;;;;;;6455392;22;20008;-84
2024/04/23 22:37:59;;;;;;;;;;;;;;;;;;;;;
2024/04/23 22:41:02;;;;;;;7.43;5.70;;;1.50;43.70;;;;;;6457434;22;20016;-84
2024/04/23 22:44:27;;;;;;;;;;;;;;;;;;;;;
2024/04/23 22:47:42;;;;;;;7.15;5.10;;;1.40;54.30;;;;;;6356896;22;19998;-80
2024/04/23 22:50:59;;;;;;;11.52;5.53;;;1.30;60.70;;;;;;6376278;22;20002;-80
2024/04/23 22:54:00;;;;;;;6.82;5.47;;;1.30;65.70;;;;;;6403357;22;20011;-84
2024/04/23 22:56:58;;;;;;;8.23;5.57;;;1.20;67.50;;;;;;6424858;22;20046;-81
2024/04/23 22:59:45;;;;;;;7.13;5.57;;;1.20;67.50;;;;;;6408465;22;20015;-81
2024/04/23 23:02:50;;;;;;;7.97;5.55;;;1.20;91.50;;;;;;6406977;22;20357;-82
2024/04/23 23:05:58;;;;;;;11.02;5.90;;;1.10;84.30;;;;;;6371321;22;20306;-83
2024/04/23 23:09:16;;;;;;;11.88;5.70;;;1.10;85.40;;;;;;6424336;22;20050;-84
2024/04/23 23:12:55;;;;;;;8.32;5.88;;;1.00;90.30;;;;;;6410181;22;20010;-83
2024/04/23 23:16:06;;;;;;;7.95;5.45;;;1.00;94.10;;;;;;6408855;22;20002;-83
2024/04/23 23:19:32;;;;;;;11.82;5.72;;;0.90;96.40;;;;;;6406573;22;20461;-83
2024/04/23 23:23:01;;;;;;;8.93;6.15;;;0.80;99.90;;;;;;6410884;22;20016;-83
2024/04/23 23:26:49;;;;;;;;;;;;;;;;;;;;;
2024/04/23 23:30:41;;;;;;;;;;;;;;;;;;;;;
2024/04/23 23:34:15;;;;;;;;;;;0.60;99.90;;;;;;6413256;22;20007;-80
2024/04/23 23:37:09;;;;;;;8.93;5.80;;;0.70;99.90;;;;;;6413803;22;19954;-83
2024/04/23 23:40:04;;;;;;;7.97;5.43;;;0.70;99.90;;;;;;6424721;22;20014;-81
2024/04/23 23:43:11;;;;;;;8.73;6.13;;;0.70;99.90;;;;;;6412748;22;20018;-84
2024/04/23 23:50:14;;;;;;;9.55;6.85;;;0.50;99.90;;;;;;6450160;22;20002;-84
2024/04/23 23:54:00;;;;;;;12.20;6.63;;;0.40;99.90;;;;;;6459238;22;20006;-84
2024/04/23 23:57:58;;;;;;;9.90;6.93;;;0.30;99.90;;;;;;6359346;22;19998;-83
